Jantarowy Przełaj

Jantarowy Przełaj 2018 - 10km

M-ce Numer Nazwisko Imię Płeć M-ce M/K Kat. M-ce kat. M/K Miejscowość Klub DYSTANS Wynik Prędkość km/h j. Tempo min/km j.
1 249 LUŚNIA ANDRZEJ M 1 M 36-55 1 KĘTRZYN CENTRUM SZKOLENIA STRAŻY GRANICZNEJ KĘTRZYN 10km 0:38:26 15.61 [km/h] 12:51 [min/km]
2 202 JÓŹWIAK MARCIN M 2 M 36-55 2 JANTAR 10km 0:41:21 14.51 [km/h] 12:08 [min/km]
3 237 PARDO SEBASTIAN M 3 M 36-55 3 TCZEW BIEGAJĄCY TCZEW 10km 0:42:21 14.17 [km/h] 12:14 [min/km]
4 257 DOBOSIK DAMIAN M 4 M 0-35 1 ELBLĄG 10km 0:42:27 14.13 [km/h] 12:15 [min/km]
5 261 KUCHARCZYK ARKADIUSZ M 5 M 36-55 4 GDAŃSK 10km 0:42:33 14.10 [km/h] 12:15 [min/km]
6 236 SYROCKI SYLWESTER M 6 M 36-55 5 ELBLĄG 10km 0:44:15 13.56 [km/h] 12:26 [min/km]
7 245 CHUDEWNIAK TOMEK M 7 M 0-35 2 JUNOSZYNO 10km 0:44:17 13.55 [km/h] 12:26 [min/km]
8 298 PUSZCZEWICZ WOJCIECH M 8 M 36-55 6 STEGNA - 10km 0:45:01 13.33 [km/h] 12:30 [min/km]
9 258 PAZIK DARIUSZ M 9 M 0-35 3 RUMIA RUNEDA 10km 0:45:55 13.07 [km/h] 12:36 [min/km]
10 256 MATULEWICZ MAGDALENA K 1 K 0-35 1 ELBLĄG 10km 0:46:11 12.99 [km/h] 12:37 [min/km]
11 232 ŻEŻNIK CZESŁAW M 10 M 56+ 1 PRZYWIDZ NIEZRZESZONY 10km 0:46:39 12.86 [km/h] 12:40 [min/km]
12 207 KONAT GRZEGORZ M 11 M 36-55 7 MIKOSZEWO EKG MIKOSZEWO 10km 0:49:21 12.16 [km/h] 12:56 [min/km]
13 205 PRZYBYŁEK MICHAŁ M 12 M 36-55 8 NOWY DWÓR MORĄG 10km 0:51:31 11.65 [km/h] 12:09 [min/km]
14 208 FLOREK ŁUKASZ M 13 M 0-35 4 GRUPA RUN TEAM FLORASY 10km 0:53:44 11.17 [km/h] 12:22 [min/km]
15 301 BATKIEWICZ SEBASTIAN M 14 M 36-55 9 GDAŃSK - 10km 0:53:45 11.16 [km/h] 12:23 [min/km]
16 233 BOGUSZEWSKI KRZYSZTOF M 15 M 36-55 10 DZIERZGOŃ 10km 0:53:59 11.11 [km/h] 12:24 [min/km]
17 267 SCIEPURO KAROLINA K 2 K 0-35 2 GDAŃSK 10km 0:54:04 11.10 [km/h] 12:24 [min/km]
18 272 RÓŻYCKA JOANNA K 3 K 0-35 3 GDAŃSK 10km 0:54:22 11.04 [km/h] 12:26 [min/km]
19 265 KLEIN ANDRZEJ M 16 M 36-55 11 GDAŃSK 10km 0:55:14 10.86 [km/h] 12:31 [min/km]
20 246 GAPSKA ANNA K 4 K 0-35 4 GDAŃSK 10km 0:55:16 10.86 [km/h] 12:32 [min/km]
21 255 ORLICKI DOMINIK M 17 M 36-55 12 STEGNA 10km 0:55:20 10.84 [km/h] 12:32 [min/km]
22 221 DURLETA PAWEŁ M 18 M 36-55 13 SOSNOWIEC LATACZE OSTROWY 10km 0:56:11 10.68 [km/h] 12:37 [min/km]
23 235 CIESIELSKI JAN M 19 M 36-55 14 TORUŃ 10km 0:56:53 10.55 [km/h] 12:41 [min/km]
24 234 CIESIELSKI MACIEJ M 20 M 0-35 5 TORUŃ 10km 0:56:53 10.55 [km/h] 12:41 [min/km]
25 227 FURA PIOTR M 21 M 0-35 6 STEGNA GMINA STEGNA 10km 0:57:06 10.51 [km/h] 12:43 [min/km]
26 269 UZDOWSKI TOMEK M 22 M 0-35 7 GDAŃSK 10km 0:57:54 10.36 [km/h] 12:47 [min/km]
27 264 BASIUKIEWICZ MARTYNA K 5 K 0-35 5 GDANSK DCT DRUŻYNA BIEGOWA 10km 0:57:57 10.35 [km/h] 12:48 [min/km]
28 219 URBAŃSKI DARIUSZ M 23 M 0-35 8 GDYNIA 10km 0:58:01 10.34 [km/h] 12:48 [min/km]
29 212 CHRZANOWSKA CECYLIA K 6 K 56+ 1 LISEWO AKTYWNE LISEWO 10km 0:58:46 10.21 [km/h] 12:53 [min/km]
30 213 SOWIŃSKI PAWEŁ M 24 M 36-55 15 GDYNIA 10km 0:58:47 10.21 [km/h] 12:53 [min/km]
31 250 JASINIEWSKI SŁAWOMIR M 25 M 36-55 16 SULNOWO 10km 0:59:13 10.13 [km/h] 12:55 [min/km]
32 225 ZARĘBSKI SŁAWOMIR M 26 M 56+ 2 ELBLĄG ELAKTYWNY MARATOŃCZYK TEAM 10km 0:59:15 10.13 [km/h] 12:56 [min/km]
33 216 KAMIŃSKA MAGDALENA K 7 K 0-35 6 LISEWO AKTYWNE LISEWO 10km 0:59:15 10.13 [km/h] 12:56 [min/km]
34 204 MISZEWSKI ADAM M 27 M 36-55 17 GDAŃSK GRUPA BIEGOWA 65 10km 1:00:18 9.95 [km/h] 12:02 [min/km]
35 244 CHUDEWNIAK KATARZYNA K 8 K 0-35 7 SZTUTOWO 10km 1:00:18 9.95 [km/h] 12:02 [min/km]
36 271 OSIECKI ADAM M 28 M 36-55 18 GDAŃSK 10km 1:00:30 9.92 [km/h] 12:03 [min/km]
37 300 ZDUN TOMASZ M 29 M 36-55 19 ELBLĄG - 10km 1:00:52 9.86 [km/h] 12:05 [min/km]
38 299 GAJEWSKI SEBASTIAN M 30 M 36-55 20 ELBLĄG - 10km 1:01:39 9.73 [km/h] 12:10 [min/km]
39 262 SOSNOWSKI GRZEGORZ M 31 M 36-55 21 ŁEBA THE NORTH EVENT 10km 1:02:37 9.58 [km/h] 12:16 [min/km]
40 229 BULATOVA GALYNA K 9 K 0-35 8 GDAŃSK GETRESPONSE 10km 1:03:01 9.52 [km/h] 12:18 [min/km]
41 220 SOBOTA MARCIN M 32 M 36-55 22 SOSNOWIEC LATACZE OSTROWY 10km 1:03:10 9.50 [km/h] 12:19 [min/km]
42 266 PORSZKE ANDRZEJ M 33 M 0-35 9 TYCHY 10km 1:03:16 9.48 [km/h] 12:20 [min/km]
43 201 HELAK MAREK M 34 M 36-55 23 GRUDZIADZ WTORKOWY TRENING 10km 1:03:37 9.43 [km/h] 12:22 [min/km]
44 222 KOZŁOWSKA MARTA K 10 K 0-35 9 LISEWO AKTYWNE LISEWO 10km 1:03:48 9.40 [km/h] 12:23 [min/km]
45 259 WOŁK KRZYSZTOF M 35 M 0-35 10 JANTAR JANTAR 10km 1:04:26 9.31 [km/h] 12:27 [min/km]
46 238 SAWIK ALEKSANDRA K 11 K 36-55 1 GDAŃSK 10km 1:04:27 9.31 [km/h] 12:27 [min/km]
47 206 ROGOWSKA-KONAT EMILIA K 12 K 36-55 2 MIKOSZEWO EKG MIKOSZEWO 10km 1:04:55 9.24 [km/h] 12:30 [min/km]
48 260 ZAWADA MARCIN M 36 M 0-35 11 ŁÓDŹ 10km 1:04:59 9.23 [km/h] 12:30 [min/km]
49 242 ZMUDZINSKI TOMEK M 37 M 0-35 12 GDANSK 10km 1:05:06 9.22 [km/h] 12:31 [min/km]
50 228 REGINIA OKSANA K 13 K 0-35 10 GDANSK 10km 1:05:13 9.20 [km/h] 12:31 [min/km]
51 230 BELADZED VITA K 14 K 0-35 11 GDANSK GETRESPONSE 10km 1:05:13 9.20 [km/h] 12:31 [min/km]
52 215 CIECHOWSKA ALICJA K 15 K 36-55 3 LISEWO AKTYWNE LISEWO 10km 1:06:37 9.01 [km/h] 12:40 [min/km]
53 224 KOPCZYŃSKI MAREK M 38 M 36-55 24 STAROGARD GDAŃSKI 10km 1:06:50 8.98 [km/h] 12:41 [min/km]
54 275 TOMAL GRZEGORZ M 39 M 0-35 13 ELBLĄG 10km 1:06:53 8.97 [km/h] 12:41 [min/km]
55 273 ROGOWSKI TOMASZ M 40 M 36-55 25 ELBLĄG 10km 1:07:01 8.95 [km/h] 12:42 [min/km]
56 226 ŻYWUSZKO WIOLETTA K 16 K 36-55 4 ELBLĄG ELAKTYWNY MARATOŃCZYK TEAM 10km 1:07:18 8.92 [km/h] 12:44 [min/km]
57 231 SLIKEYEU MIKHAIL M 41 M 0-35 14 GDAŃSK 10km 1:08:22 8.78 [km/h] 12:50 [min/km]
58 251 KLIMCZAK JUSTYNA K 17 K 0-35 12 MŁYNARY 10km 1:08:34 8.75 [km/h] 12:51 [min/km]
59 253 PIETRUCHA GRAŻYNA K 18 K 36-55 5 MŁYNARY 10km 1:08:35 8.75 [km/h] 12:52 [min/km]
60 254 WĄTRUK PAULINA K 19 K 0-35 13 MŁYNARY 10km 1:08:35 8.75 [km/h] 12:52 [min/km]
61 252 SMOLSKA TERESA K 20 K 36-55 6 MŁYNARY 10km 1:08:36 8.75 [km/h] 12:52 [min/km]
62 209 GŁOWACKA ANNA K 21 K 36-55 7 ELBLĄG IKS ATAK ELBLĄG 10km 1:09:13 8.67 [km/h] 12:55 [min/km]
63 217 SADZIKOWSKI TOMASZ M 42 M 36-55 26 LISEWO AKTYWNE LISEWO 10km 1:09:36 8.62 [km/h] 12:58 [min/km]
64 268 ORŁOWSKI PIOTR M 43 M 0-35 15 GDYNIA 10km 1:10:33 8.50 [km/h] 12:03 [min/km]
65 203 SIEJKA MAŁGORZATA K 22 K 36-55 8 MORĄG 10km 1:11:08 8.43 [km/h] 12:07 [min/km]
66 303 MENEZES TIAGO M 44 M 36-55 27 GDAŃSK - 10km 1:11:08 8.43 [km/h] 12:07 [min/km]
67 241 CIECZKO MARIA K 23 K 0-35 14 BRODNICA 10km 1:11:40 8.37 [km/h] 12:10 [min/km]
68 223 MARCZAK MAŁGORZATA K 24 K 56+ 2 ŻELKOWO 10km 1:13:44 8.14 [km/h] 12:22 [min/km]
69 218 URBAŃSKA MAGDALENA K 25 K 0-35 15 GDYNIA 10km 1:15:28 7.95 [km/h] 12:33 [min/km]
70 263 SZACHNIUK MARZENA K 26 K 56+ 3 ŁEBA THE NORTH EVENT 10km 1:16:39 7.83 [km/h] 12:40 [min/km]
71 302 JANOWICZ ANNA K 27 K 0-35 16 JANTAR - 10km 1:16:41 7.82 [km/h] 12:40 [min/km]
72 274 ROGOWSKA ALEKSANDRA K 28 K 0-35 17 ELBLĄG JEDYNECZKA ELBLĄG 10km 1:16:41 7.82 [km/h] 12:40 [min/km]
73 239 DĄDELSKA BEATA K 29 K 0-35 18 LISEWO AKTYWNE LISEWO 10km 1:17:49 7.71 [km/h] 12:47 [min/km]
74 240 PILECKA KATARZYNA K 30 K 36-55 9 LISEWO AKTYWNE LISEWO 10km 1:17:49 7.71 [km/h] 12:47 [min/km]
75 214 STAWICKA EWELINA K 31 K 0-35 19 LISEWO AKTYWNE LISEWO 10km 1:17:52 7.71 [km/h] 12:47 [min/km]
76 243 CEJROWSKI MAREK M 45 M 0-35 16 GDAŃSK 10km 1:22:56 7.23 [km/h] 12:18 [min/km]
77 211 SOWA SYLWESTER M 46 M 36-55 28 ELBLĄG IKS ATAK ELBLĄG 10km 1:30:44 6.61 [km/h] 12:04 [min/km]
78 210 SOWA RENIA K 32 K 36-55 10 ELBLĄG IKS ATAK ELBLĄG 10km 1:30:45 6.61 [km/h] 12:05 [min/km]

Jantarowy Przełaj 2018 - 21km

M-ce Numer Nazwisko Imię Płeć M-ce M/K Kat. M-ce kat. M/K Miejscowość Klub DYSTANS Wynik Prędkość km/h j. Tempo min/km j.
1 46 GARBOWSKI KRZYSZTOF M 1 M 30-39 1 SZTUM LKS ZANTYR SZTUM 21km 1:25:18 14.77 [km/h] 12:04 [min/km]
2 16 BĘTKOWSKI PIOTR M 2 M 30-39 2 WARSZAWA CITY TRAIL TEAM 21km 1:28:04 14.31 [km/h] 12:12 [min/km]
3 50 SOSNOWSKI WIESŁAW M 3 M 40-49 1 GNISZEWO ACTIVE MALBORK 21km 1:28:26 14.25 [km/h] 12:13 [min/km]
4 1 SHEVCHYSHYN ANDRII M 4 M 0-29 1 NAHIRIANKA DCT DRUŻYNA BIEGOWA 21km 1:28:54 14.17 [km/h] 12:14 [min/km]
5 37 GAPSKI MATEUSZ M 5 M 30-39 3 GDAŃSK GRUPA 65 21km 1:39:01 12.73 [km/h] 12:43 [min/km]
6 54 CECHMANN ANDRZEJ M 6 M 50-59 1 GDANSK 21km 1:39:10 12.71 [km/h] 12:43 [min/km]
7 14 KIERZNIKIEWICZ SEBASTIAN M 7 M 30-39 4 GDAŃSK 21km 1:42:41 12.27 [km/h] 12:53 [min/km]
8 13 LITWIN PIOTR M 8 M 40-49 2 GDAŃSK OCEANIC 21km 1:43:07 12.22 [km/h] 12:55 [min/km]
9 18 KOWALSKI JACEK M 9 M 40-49 3 ELBLĄG ELAKTYWNY MARATOŃCZYK TEAM 21km 1:44:18 12.08 [km/h] 12:58 [min/km]
10 56 PAKULSKI MARCIN M 10 M 40-49 4 KOSZALIN 21km 1:45:09 11.98 [km/h] 12:00 [min/km]
11 33 KOWALSKI KAZIMIERZ M 11 M 50-59 2 STAROGARD GDANSKI 21km 1:46:15 11.86 [km/h] 12:04 [min/km]
12 39 KALINOWSKI ŁUKASZ M 12 M 30-39 5 WARSZAWA 21km 1:46:19 11.85 [km/h] 12:04 [min/km]
13 29 RICHERT WALDEMAR M 13 M 40-49 5 PRUSZCZ GDAŃSKI TERRA POMORZE TEAM 21km 1:46:44 11.81 [km/h] 12:05 [min/km]
14 59 KOS SŁAWOMIR M 14 M 40-49 6 NOWY DWÓR GD. DCT DRUŻYNA BIEGOWA 21km 1:48:02 11.66 [km/h] 12:09 [min/km]
15 24 POLAŃSKI MARCIN M 15 M 0-29 2 SZTUTOWO GENERAT ZE SZTUTOWA 21km 1:50:14 11.43 [km/h] 12:15 [min/km]
16 55 KRĘGIELEWSKI MIROSŁAW M 16 M 50-59 3 GDYNIA 21km 1:50:29 11.40 [km/h] 12:16 [min/km]
17 8 VAN IEPEREN ARCO M 17 M 40-49 7 ELBLĄG AZS PWSZ ELBLĄG 21km 1:54:44 10.98 [km/h] 12:28 [min/km]
18 32 DRESZLER WIESŁAW M 18 M 40-49 8 SKOWARCZ 21km 1:57:02 10.77 [km/h] 12:34 [min/km]
19 6 SIEPIOŁA CEZARY M 19 M 30-39 6 MORĄG 21km 1:57:29 10.72 [km/h] 12:36 [min/km]
20 19 ŁOWCZAK WIESŁAW M 20 M 40-49 9 ELBLĄG EL-AKTYWNI 21km 1:59:14 10.57 [km/h] 12:41 [min/km]
21 34 FURTAK ARKADIUSZ M 21 M 50-59 4 SZTUTOWO 21km 2:00:36 10.45 [km/h] 12:45 [min/km]
22 48 JANKOWSKI MAREK M 22 M 40-49 10 GDAŃSK 21km 2:00:59 10.41 [km/h] 12:46 [min/km]
23 64 MATEJUK ARKADIUSZ M 23 M 30-39 7 MALBORK BEZTLENOWI MALBORK 21km 2:01:04 10.41 [km/h] 12:46 [min/km]
24 26 KOLIŃSKI KRZYSZTOF M 24 M 30-39 8 LIPUSZ 21km 2:01:19 10.39 [km/h] 12:47 [min/km]
25 15 SZKLORZ SYLWESTER M 25 M 40-49 11 KATOWICE ADS MASNA 21km 2:01:19 10.39 [km/h] 12:47 [min/km]
26 52 DZIWAK DARIUSZ M 26 M 30-39 9 KATOWICE TIMOTHY 21km 2:01:26 10.38 [km/h] 12:47 [min/km]
27 2 WOJNOWSKI WIESŁAW M 27 M 30-39 10 STAROWIŚLNA 7/11 DCT DRUŻYNA BIEGOWA 21km 2:01:40 10.36 [km/h] 12:48 [min/km]
28 62 KIEWISZ ADAM M 28 M 30-39 11 OLSZTYN SĄ WOLNIEJSI 21km 2:03:41 10.19 [km/h] 12:53 [min/km]
29 53 KOWALEWSKA MAŁGORZATA K 1 K 40-49 1 BANINO RUNNERSI S7 BANINO 21km 2:03:58 10.16 [km/h] 12:54 [min/km]
30 3 GERING MARIUSZ M 29 M 30-39 12 GDAŃSKU DCT DRUŻYNA BIEGOWA 21km 2:05:19 10.05 [km/h] 12:58 [min/km]
31 51 KOWALSKI ROBERT SEBASTIAN M 30 M 40-49 12 GDAŃSK NIE MARNUJ TLENU GDAŃSKIE AUTOBUSY I TRAMWAJE 21km 2:05:25 10.05 [km/h] 12:58 [min/km]
32 25 NIESPODZIŃSKI LESŁAW M 31 M 50-59 5 TCZEW BIEGAJĄCY TCZEW 21km 2:06:41 9.95 [km/h] 12:02 [min/km]
33 35 SWAJDA KRZYSZTOF WLADYSLAW M 32 M 40-49 13 STEGNA WILKI ŻUŁAWSKIE 21km 2:07:11 9.91 [km/h] 12:03 [min/km]
34 45 WYSOCKI ZBIGNIEW M 33 M 50-59 6 BARCIN #ŚLIMAKI BARCIN 21km 2:07:13 9.90 [km/h] 12:03 [min/km]
35 42 MARCZAK MAREK M 34 M 40-49 14 PRUSZCZ GDAŃSKI PRUSZCZ BIEGA 21km 2:07:15 9.90 [km/h] 12:04 [min/km]
36 28 GRZELECKI SEBASTIAN M 35 M 30-39 13 JUSZKOWO ST RUNNERS 21km 2:07:42 9.87 [km/h] 12:05 [min/km]
37 17 KUNDYS KAROLINA K 2 K 30-39 1 WARSZAWA 21km 2:07:44 9.86 [km/h] 12:05 [min/km]
38 30 LUTO PAWEŁ M 36 M 30-39 14 GDAŃSK DCT DRUŻYNA BIEGOWA 21km 2:08:00 9.84 [km/h] 12:06 [min/km]
39 47 DYDYNA KRZYSZTOF M 37 M 40-49 15 KĄTY RYBACKIE WOJSKO POLSKIE 21km 2:08:54 9.78 [km/h] 12:08 [min/km]
40 36 WIŚNIEWSKI MACIEJ M 38 M 40-49 16 ŚWIECIE 21km 2:10:14 9.67 [km/h] 12:12 [min/km]
41 4 MUCHA JAN M 39 M 50-59 7 OLSZTYN 21km 2:10:51 9.63 [km/h] 12:14 [min/km]
42 21 KRAUSE SŁAWOMIR M 40 M 40-49 17 ELBLĄG ELAKTYWNY MARATOŃCZYK TEAM 21km 2:11:38 9.57 [km/h] 12:16 [min/km]
43 23 BARTNICKI WOJCIECH M 41 M 50-59 8 ELBLĄG EL-AKTYWNI 21km 2:11:41 9.57 [km/h] 12:16 [min/km]
44 22 BARTNICKA ANETTA K 3 K 40-49 2 ELBLĄG EL - AKTYWNI 21km 2:11:45 9.56 [km/h] 12:16 [min/km]
45 12 KRAWCZUK ANDRZEJ M 42 M 60+ 1 GDAŃSK ELAKTYWNY MARATOŃCZYK TEAM 21km 2:11:57 9.55 [km/h] 12:17 [min/km]
46 44 WOŹNIAK MICHAŁ M 43 M 30-39 15 BRODNICA GÓRNA 21km 2:12:18 9.52 [km/h] 12:18 [min/km]
47 63 LEWICKI MACIEJ M 44 M 30-39 16 STRASZYN 21km 2:12:23 9.52 [km/h] 12:18 [min/km]
48 49 WYCICHOWSKI WOJCIECH M 45 M 40-49 18 OSTASZEWO 21km 2:12:42 9.50 [km/h] 12:19 [min/km]
49 27 ROZMUS WIKTOR M 46 M 30-39 17 GDAŃSK 21km 2:14:39 9.36 [km/h] 12:25 [min/km]
50 41 BODZIONA ANGELIKA K 4 K 40-49 3 KORZEŃSKO 21km 2:15:34 9.29 [km/h] 12:27 [min/km]
51 58 SARNECKI KAMIL M 47 M 40-49 19 GDAŃSK RUN AROUND THE ISLAND 21km 2:18:45 9.08 [km/h] 12:36 [min/km]
52 43 PARANDYK ADAM M 48 M 40-49 20 JUSZKOWO 21km 2:19:21 9.04 [km/h] 12:38 [min/km]
53 57 KORDECKI SEBASTIAN M 49 M 30-39 18 STEGNA 21km 2:22:12 8.86 [km/h] 12:46 [min/km]
54 5 BROKOS TOMASZ M 50 M 30-39 19 GDAŃSK DCT DRUŻYNA BIEGOWA 21km 2:23:15 8.80 [km/h] 12:49 [min/km]
55 38 WTULICH DIANA K 5 K 50+ 1 MŁAWA 21km 2:24:27 8.72 [km/h] 12:53 [min/km]
56 31 GRZĘBSKA-BUJA MAŁGORZATA K 6 K 30-39 2 WŁADYSŁAWOWO GOSIA(SIĘ)BUJA 21km 2:25:30 8.66 [km/h] 12:56 [min/km]
57 40 WÓJCIK MARCIN M 51 M 30-39 20 GDYNIA 21km 2:26:01 8.63 [km/h] 12:57 [min/km]
58 7 ROWICKI JAROSŁAW M 52 M 40-49 21 MORĄG 21km 2:27:55 8.52 [km/h] 12:03 [min/km]
59 61 BORIS ANETA K 7 K 30-39 3 ELBLĄG EL - AKTYWNI 21km 2:30:54 8.35 [km/h] 12:11 [min/km]
60 60 MYTYCH KATARZYNA K 8 K 40-49 4 ELBLĄG 21km 2:34:31 8.15 [km/h] 12:21 [min/km]
61 20 KRAUSE IWONA K 9 K 40-49 5 ELBLĄG ELAKTYWNY MARATOŃCZYK TEAM 21km 2:35:44 8.09 [km/h] 12:25 [min/km]

Jantarowy Przełaj 2018 - NordicWalking

M-ce Numer Nazwisko Imię Płeć M-ce M/K Miejscowość Klub DYSTANS Wynik Prędkość km/h j. Tempo min/km j.
1 406 TOPOREK RAFAŁ M 1 PRZODKOWO NWPL/ LUKI TEAM SIELDCE 10km NW 1:08:51 8.71 [km/h] 12:53 [min/km]
2 423 KŁOS MACIEJ M 2 GDAŃSK - 10km NW 1:10:29 8.51 [km/h] 12:03 [min/km]
3 401 MARKIN EVGENIJ M 3 KALININGRAD DED 10km NW 1:12:13 8.31 [km/h] 12:13 [min/km]
4 412 ŚWISŁOCKI BOGDAN M 4 MIKOSZEWO FACE NORDIC WALKING TEAM 10km NW 1:14:11 8.09 [km/h] 12:25 [min/km]
5 424 GIERSZEWSKI ARKADIUSZ M 5 CHOJNICE - 10km NW 1:14:45 8.03 [km/h] 12:29 [min/km]
6 405 TOPOREK ALEKSANDRA K 1 PRZODKOWO NWPL/ LUKI TEAM SIELDCE 10km NW 1:20:12 7.48 [km/h] 12:01 [min/km]
7 408 KWAPISIEWICZ JOANNA K 2 MIKOSZEWO 10km NW 1:21:19 7.38 [km/h] 12:08 [min/km]
8 404 BIAŁK ROMAN M 6 GDAŃSK 10km NW 1:21:41 7.35 [km/h] 12:10 [min/km]
9 403 ŁĘCKI JAN M 7 GDYNIA FACE NORDIC WALKING TEAM 10km NW 1:22:23 7.28 [km/h] 12:14 [min/km]
10 411 TOWARNICKA IZABELA K 3 GDYNIA TEAM DEAF 10km NW 1:23:39 7.17 [km/h] 12:22 [min/km]
11 409 KORDECKA MAŁGORZATA K 4 MIKOSZEWO 10km NW 1:27:41 6.84 [km/h] 12:46 [min/km]
12 410 KOZŁOWSKA MAGDALENA K 5 MIKOSZEWO 10km NW 1:30:55 6.60 [km/h] 12:06 [min/km]
13 407 MIŁKOWSKA JOLANTA K 6 GDYNIA TEAM DEAF 10km NW 1:31:58 6.52 [km/h] 12:12 [min/km]
14 414 KARPIŃSKA KATARZYNA K 7 GDYNIA 10km NW 1:38:28 6.09 [km/h] 12:51 [min/km]

Komunikat. Wykorzystujemy pliki cookies, aby nasz serwis lepiej spełniał Państwa oczekiwania. Można zablokować zapisywanie cookies, zmieniając ustawienia przeglądarki. [x] __ZAMKNIJ